createdAt,value
2019-02-09T00:02:02.783Z,6.86
2019-02-09T00:07:04.560Z,6.83
2019-02-09T00:12:06.115Z,6.86
2019-02-09T00:17:07.810Z,6.84
2019-02-09T00:22:09.585Z,6.82
2019-02-09T00:27:11.167Z,6.82
2019-02-09T00:32:12.731Z,6.83
2019-02-09T00:37:14.308Z,6.85
2019-02-09T00:42:15.926Z,6.83
2019-02-09T00:47:17.613Z,6.77
2019-02-09T00:52:19.170Z,6.72
2019-02-09T00:57:20.752Z,6.68
2019-02-09T01:02:22.417Z,6.62
2019-02-09T01:07:23.978Z,6.63
2019-02-09T01:12:25.579Z,6.66
2019-02-09T01:17:27.144Z,6.72
2019-02-09T01:22:28.691Z,6.71
2019-02-09T01:27:30.252Z,6.73
2019-02-09T01:32:31.903Z,6.75
2019-02-09T01:37:33.564Z,6.74
2019-02-09T01:42:35.123Z,6.77
2019-02-09T01:47:36.790Z,6.77
2019-02-09T01:52:38.458Z,6.78
2019-02-09T01:57:40.118Z,6.76
2019-02-09T02:02:41.890Z,6.74
2019-02-09T02:07:43.552Z,6.74
2019-02-09T02:12:45.215Z,6.72
2019-02-09T02:17:46.886Z,6.75
2019-02-09T02:22:48.556Z,6.81
2019-02-09T02:27:50.117Z,6.83
2019-02-09T02:32:51.877Z,6.86
2019-02-09T02:37:53.653Z,6.89
2019-02-09T02:42:55.318Z,6.90
2019-02-09T02:47:56.873Z,6.88
2019-02-09T02:52:58.419Z,6.86
2019-02-09T02:58:00.087Z,6.85
2019-02-09T03:03:01.865Z,6.80
2019-02-09T03:08:04.123Z,6.77
2019-02-09T03:13:05.771Z,6.77
2019-02-09T03:18:07.368Z,6.77
2019-02-09T03:23:08.919Z,6.76
2019-02-09T03:28:10.568Z,6.73
2019-02-09T03:33:12.201Z,6.72
2019-02-09T03:38:13.707Z,6.72
2019-02-09T03:43:15.264Z,6.73
2019-02-09T03:48:16.950Z,6.74
2019-02-09T03:53:18.511Z,6.72
2019-02-09T03:58:20.160Z,6.71
2019-02-09T04:03:22.044Z,6.67
2019-02-09T04:08:23.734Z,6.66
2019-02-09T04:13:25.381Z,6.61
2019-02-09T04:18:26.931Z,6.55
2019-02-09T04:23:28.723Z,6.53
2019-02-09T04:28:30.423Z,6.56
2019-02-09T04:33:31.971Z,6.60
2019-02-09T04:38:33.526Z,6.65
2019-02-09T04:43:35.098Z,6.69
2019-02-09T04:48:36.670Z,6.78
2019-02-09T04:53:38.324Z,6.83
2019-02-09T04:58:39.935Z,6.85
2019-02-09T05:03:41.602Z,6.87
2019-02-09T05:08:43.248Z,6.87
2019-02-09T05:13:44.787Z,6.88
2019-02-09T05:18:46.347Z,6.92
2019-02-09T05:23:48.014Z,7.02
2019-02-09T05:28:49.569Z,7.14
2019-02-09T05:33:51.243Z,7.20
2019-02-09T05:38:52.895Z,7.23
2019-02-09T05:43:54.443Z,7.23
2019-02-09T05:48:55.995Z,7.24
2019-02-09T05:53:57.544Z,7.22
2019-02-09T05:58:59.220Z,7.19
2019-02-09T06:04:00.899Z,7.17
2019-02-09T06:09:05.555Z,7.16
2019-02-09T06:14:07.165Z,7.10
2019-02-09T06:19:08.712Z,7.10
2019-02-09T06:24:10.369Z,7.06
2019-02-09T06:29:11.982Z,7.04
2019-02-09T06:34:13.537Z,7.06
2019-02-09T06:39:15.112Z,7.05
2019-02-09T06:44:16.789Z,7.07
2019-02-09T06:49:18.350Z,7.06
2019-02-09T06:54:19.914Z,7.07
2019-02-09T06:59:21.565Z,7.08
2019-02-09T07:04:23.280Z,7.07
2019-02-09T07:09:24.837Z,7.06
2019-02-09T07:14:26.487Z,7.06
2019-02-09T07:19:28.040Z,7.06
2019-02-09T07:24:29.812Z,7.08
2019-02-09T07:29:31.490Z,7.04
2019-02-09T07:34:33.139Z,6.98
2019-02-09T07:39:34.691Z,7.02
2019-02-09T07:44:36.267Z,7.18
2019-02-09T07:49:37.929Z,7.39
2019-02-09T07:54:39.608Z,7.63
2019-02-09T07:59:41.676Z,7.75
2019-02-09T08:04:43.368Z,7.68
2019-02-09T08:09:44.959Z,7.65
2019-02-09T08:14:46.640Z,7.41
2019-02-09T08:19:48.258Z,7.29
2019-02-09T08:24:49.948Z,7.30
2019-02-09T08:29:51.535Z,7.38
2019-02-09T08:34:53.123Z,7.45
2019-02-09T08:39:54.738Z,7.53
2019-02-09T08:44:56.329Z,7.58
2019-02-09T08:49:57.925Z,7.65
2019-02-09T08:54:59.504Z,7.70
2019-02-09T09:00:01.207Z,7.78
2019-02-09T09:05:09.558Z,7.87
2019-02-09T09:10:08.706Z,7.94
2019-02-09T09:15:13.750Z,8.06
2019-02-09T09:20:21.149Z,8.14
2019-02-09T09:25:22.847Z,8.23
2019-02-09T09:30:25.238Z,8.36
2019-02-09T09:35:27.118Z,8.46
2019-02-09T09:40:31.035Z,8.61
2019-02-09T09:45:34.044Z,8.92
2019-02-09T09:50:35.740Z,9.39
2019-02-09T09:55:37.448Z,9.50
2019-02-09T10:00:39.367Z,9.29
2019-02-09T10:05:41.045Z,9.14
2019-02-09T10:10:42.754Z,9.27
2019-02-09T10:15:44.459Z,9.33
2019-02-09T10:20:46.051Z,9.44
2019-02-09T10:25:47.670Z,9.36
2019-02-09T10:30:49.790Z,9.66
2019-02-09T10:35:51.483Z,10.02
2019-02-09T10:40:53.204Z,10.14
2019-02-09T10:45:54.733Z,10.02
2019-02-09T10:50:56.425Z,10.02
2019-02-09T10:55:58.178Z,10.02
2019-02-09T11:01:11.206Z,9.69
2019-02-09T11:06:12.899Z,9.89
2019-02-09T11:11:14.735Z,9.83
2019-02-09T11:16:16.463Z,9.83
2019-02-09T11:21:18.073Z,10.13
2019-02-09T11:26:19.729Z,10.15
2019-02-09T11:31:21.316Z,10.27
2019-02-09T11:36:22.890Z,9.99
2019-02-09T11:41:24.574Z,9.91
2019-02-09T11:46:26.115Z,9.82
2019-02-09T11:51:27.676Z,11.55
2019-02-09T11:56:29.541Z,12.07
2019-02-09T12:01:31.213Z,15.49
2019-02-09T12:06:32.937Z,20.92
2019-02-09T12:11:34.603Z,22.08
2019-02-09T12:16:36.274Z,15.16
2019-02-09T12:21:38.760Z,13.46
2019-02-09T12:26:40.721Z,15.47
2019-02-09T12:31:42.427Z,13.34
2019-02-09T12:36:44.244Z,11.49
2019-02-09T12:41:45.945Z,17.26
2019-02-09T12:46:47.575Z,20.05
2019-02-09T12:51:49.281Z,20.67
2019-02-09T12:56:53.638Z,20.91
2019-02-09T13:01:55.503Z,20.63
2019-02-09T13:06:58.477Z,20.06
2019-02-09T13:12:00.260Z,19.13
2019-02-09T13:17:01.845Z,19.12
2019-02-09T13:22:03.655Z,18.01
2019-02-09T13:27:05.353Z,15.40
2019-02-09T13:32:07.024Z,13.75
2019-02-09T13:37:08.815Z,12.88
2019-02-09T13:42:10.368Z,12.13
2019-02-09T13:47:12.025Z,11.52
2019-02-09T13:52:13.735Z,11.13
2019-02-09T13:57:15.431Z,11.00
2019-02-09T14:02:17.134Z,11.04
2019-02-09T14:07:18.841Z,11.09
2019-02-09T14:12:20.524Z,11.21
2019-02-09T14:17:22.204Z,11.01
2019-02-09T14:22:23.797Z,10.99
2019-02-09T14:27:26.621Z,10.87
2019-02-09T14:32:28.218Z,10.85
2019-02-09T14:37:29.782Z,11.30
2019-02-09T14:42:31.474Z,11.51
2019-02-09T14:47:33.177Z,11.22
2019-02-09T14:52:34.880Z,11.07
2019-02-09T14:57:36.591Z,10.95
2019-02-09T15:02:38.272Z,10.87
2019-02-09T15:07:40.051Z,10.61
2019-02-09T15:12:41.746Z,10.54
2019-02-09T15:17:43.391Z,10.35
2019-02-09T15:22:45.105Z,10.26
2019-02-09T15:27:46.803Z,10.47
2019-02-09T15:32:48.528Z,10.74
2019-02-09T15:37:50.293Z,10.60
2019-02-09T15:42:51.989Z,10.40
2019-02-09T15:47:53.604Z,10.22
2019-02-09T15:52:55.280Z,10.16
2019-02-09T15:57:56.911Z,10.08
2019-02-09T16:02:58.700Z,9.92
2019-02-09T16:08:00.447Z,9.79
2019-02-09T16:13:02.037Z,9.74
2019-02-09T16:18:04.158Z,9.70
2019-02-09T16:23:06.339Z,9.60
2019-02-09T16:28:08.168Z,9.55
2019-02-09T16:33:09.867Z,9.46
2019-02-09T16:38:13.623Z,9.37
2019-02-09T16:43:15.535Z,9.33
2019-02-09T16:48:17.113Z,9.28
2019-02-09T16:53:18.840Z,9.23
2019-02-09T16:58:20.580Z,9.18
2019-02-09T17:03:22.405Z,9.11
2019-02-09T17:08:25.540Z,9.08
2019-02-09T17:13:27.329Z,9.00
2019-02-09T17:18:28.922Z,8.98
2019-02-09T17:23:30.502Z,8.96
2019-02-09T17:28:32.327Z,8.93
2019-02-09T17:33:33.991Z,8.91
2019-02-09T17:38:35.763Z,8.89
2019-02-09T17:43:37.419Z,8.80
2019-02-09T17:48:39.029Z,8.76
2019-02-09T17:53:40.754Z,8.71
2019-02-09T17:58:42.514Z,8.67
2019-02-09T18:03:44.272Z,8.66
2019-02-09T18:08:45.911Z,8.61
2019-02-09T18:13:47.507Z,8.59
2019-02-09T18:18:49.268Z,8.54
2019-02-09T18:23:50.871Z,8.56
2019-02-09T18:28:52.597Z,8.55
2019-02-09T18:33:54.292Z,8.57
2019-02-09T18:38:55.975Z,8.54
2019-02-09T18:43:57.542Z,8.54
2019-02-09T18:48:59.432Z,8.49
2019-02-09T18:54:00.998Z,8.44
2019-02-09T18:59:02.791Z,8.41
2019-02-09T19:04:04.460Z,8.39
2019-02-09T19:09:07.904Z,8.38
2019-02-09T19:14:09.603Z,8.33
2019-02-09T19:19:11.282Z,8.29
2019-02-09T19:24:12.861Z,8.26
2019-02-09T19:29:14.529Z,8.18
2019-02-09T19:34:18.663Z,8.06
2019-02-09T19:39:20.385Z,8.02
2019-02-09T19:44:22.005Z,8.06
2019-02-09T19:49:23.703Z,8.08
2019-02-09T19:54:25.485Z,8.07
2019-02-09T19:59:27.184Z,8.10
2019-02-09T20:04:28.862Z,8.10
2019-02-09T20:09:30.440Z,8.09
2019-02-09T20:14:32.040Z,8.03
2019-02-09T20:19:33.614Z,7.98
2019-02-09T20:24:35.332Z,7.95
2019-02-09T20:29:36.893Z,7.92
2019-02-09T20:34:38.473Z,7.89
2019-02-09T20:39:40.019Z,7.87
2019-02-09T20:44:41.595Z,7.88
2019-02-09T20:49:43.164Z,7.84
2019-02-09T20:54:44.727Z,7.81
2019-02-09T20:59:46.294Z,7.77
2019-02-09T21:04:47.876Z,7.69
2019-02-09T21:09:49.442Z,7.61
2019-02-09T21:14:50.995Z,7.47
2019-02-09T21:19:52.568Z,7.35
2019-02-09T21:24:54.146Z,7.35
2019-02-09T21:29:55.719Z,7.33
2019-02-09T21:34:57.261Z,7.38
2019-02-09T21:39:58.917Z,7.45
2019-02-09T21:45:00.486Z,7.45
2019-02-09T21:50:02.916Z,7.44
2019-02-09T21:55:05.234Z,7.42
2019-02-09T22:00:16.113Z,7.39
2019-02-09T22:05:18.014Z,7.39
2019-02-09T22:10:20.474Z,7.41
2019-02-09T22:15:23.178Z,7.35
2019-02-09T22:20:24.848Z,7.36
2019-02-09T22:25:26.764Z,7.35
2019-02-09T22:30:28.542Z,7.36
2019-02-09T22:35:30.223Z,7.38
2019-02-09T22:40:33.086Z,7.38
2019-02-09T22:45:35.061Z,7.41
2019-02-09T22:50:38.987Z,7.43
2019-02-09T22:55:40.637Z,7.43
2019-02-09T23:01:10.496Z,7.41
2019-02-09T23:06:52.531Z,7.36
2019-02-09T23:11:49.843Z,7.35
2019-02-09T23:16:51.508Z,7.32
2019-02-09T23:21:53.122Z,7.29
2019-02-09T23:26:54.691Z,7.28
2019-02-09T23:31:56.249Z,7.24
2019-02-09T23:36:57.931Z,7.27
2019-02-09T23:41:59.563Z,7.27
2019-02-09T23:47:01.256Z,7.26
2019-02-09T23:52:02.936Z,7.22
2019-02-09T23:57:04.513Z,7.17
